Погода Крайновкана неделю

Республика Дагестан, Россия

16 - 22 июля
  • 16июля
    Сегодня
    +20°
    +36°
    Небольшая облачность
    ВремяПогодаТемператураВлажностьДавлениеВетер, м/сВероятность осадков
    00:00Ясно и безоблачно+22°C53 %757 мм1.3 м/с2 %
    03:00Ясно и безоблачно+21°C62 %757 мм0.9 м/с2 %
    06:00Ясно и безоблачно+23°C57 %757 мм1.5 м/с2 %
    09:00Ясно и безоблачно+31°C39 %757 мм2.6 м/с2 %
    12:00Практически безоблачно+35°C25 %757 мм3.5 м/с2 %
    15:00Небольшая облачность+35°C23 %756 мм4.6 м/с2 %
    18:00Ясно и безоблачно+33°C24 %756 мм4.4 м/с2 %
    21:00Практически безоблачно+24°C43 %757 мм2.4 м/с2 %
  • 17июля
    Среда
    +20°
    +36°
    Ясно и безоблачно
    ВремяПогодаТемператураВлажностьДавлениеВетер, м/сВероятность осадков
    00:00Ясно и безоблачно+23°C54 %757 мм1.2 м/с2 %
    03:00Ясно и безоблачно+21°C64 %757 мм1.0 м/с2 %
    06:00Ясно и безоблачно+23°C55 %758 мм1.2 м/с2 %
    09:00Ясно и безоблачно+32°C26 %758 мм1.4 м/с2 %
    12:00Ясно и безоблачно+35°C25 %758 мм3.0 м/с17 %
    15:00Ясно и безоблачно+36°C30 %758 мм4.4 м/с16 %
    18:00Ясно и безоблачно+32°C39 %758 мм4.5 м/с9 %
    21:00Ясно и безоблачно+25°C57 %758 мм2.3 м/с2 %
  • 18июля
    Четверг
    +20°
    +35°
    Облачно с прояснениями
    ВремяПогодаТемператураВлажностьДавлениеВетер, м/сВероятность осадков
    00:00Ясно и безоблачно+23°C73 %758 мм1.5 м/с2 %
    03:00Ясно и безоблачно+22°C83 %758 мм1.0 м/с2 %
    06:00Ясно и безоблачно+23°C72 %758 мм1.1 м/с2 %
    09:00Практически безоблачно+31°C37 %758 мм2.2 м/с2 %
    12:00Практически безоблачно+34°C25 %757 мм2.9 м/с2 %
    15:00Облачно с прояснениями+34°C24 %757 мм3.7 м/с6 %
    18:00Ясно и безоблачно+32°C29 %756 мм4.5 м/с2 %
    21:00Ясно и безоблачно+25°C42 %757 мм2.6 м/с2 %
  • 19июля
    Пятница
    +22°
    +38°
    Ясно и безоблачно
    ВремяПогодаТемператураВлажностьДавлениеВетер, м/сВероятность осадков
    00:00Ясно и безоблачно+23°C59 %756 мм1.0 м/с2 %
    03:00Ясно и безоблачно+22°C66 %756 мм0.8 м/с2 %
    06:00Ясно и безоблачно+23°C63 %756 мм1.0 м/с2 %
    09:00Ясно и безоблачно+31°C23 %756 мм1.2 м/с2 %
    12:00Ясно и безоблачно+35°C17 %755 мм1.1 м/с2 %
    15:00Ясно и безоблачно+37°C16 %753 мм2.1 м/с2 %
    18:00Ясно и безоблачно+33°C26 %754 мм5.7 м/с2 %
    21:00Ясно и безоблачно+26°C38 %754 мм2.9 м/с2 %
  • 20июля
    Суббота
    +22°
    +37°
    Облачно с прояснениями
    ВремяПогодаТемператураВлажностьДавлениеВетер, м/сВероятность осадков
    00:00Практически безоблачно+24°C37 %754 мм2.0 м/с2 %
    03:00Облачно с прояснениями+22°C42 %753 мм1.1 м/с2 %
    06:00Практически безоблачно+24°C47 %754 мм1.8 м/с2 %
    09:00Облачно с прояснениями+33°C31 %753 мм3.5 м/с2 %
    12:00Облачно с прояснениями+36°C21 %753 мм3.8 м/с2 %
    15:00Облачно с прояснениями+37°C20 %752 мм4.9 м/с2 %
    18:00Облачно с прояснениями+33°C25 %753 мм4.9 м/с2 %
    21:00Облачно с прояснениями+25°C51 %753 мм2.6 м/с2 %
Мы используем cookies
Соглашаюсь